sensor_id;sensor_type;location;lat;lon;timestamp;P1;durP1;ratioP1;P2;durP2;ratioP2
47760;SDS011;33524;55.434;38.520;2023-06-10T00:00:50;6.10;;;3.58;;
47760;SDS011;33524;55.434;38.520;2023-06-10T00:03:19;5.78;;;3.45;;
47760;SDS011;33524;55.434;38.520;2023-06-10T00:05:47;5.30;;;3.30;;
47760;SDS011;33524;55.434;38.520;2023-06-10T00:08:16;7.22;;;4.07;;
47760;SDS011;33524;55.434;38.520;2023-06-10T00:10:47;5.60;;;3.85;;
47760;SDS011;33524;55.434;38.520;2023-06-10T00:13:15;6.35;;;3.85;;
47760;SDS011;33524;55.434;38.520;2023-06-10T00:15:43;5.18;;;3.12;;
47760;SDS011;33524;55.434;38.520;2023-06-10T00:18:15;6.00;;;3.50;;
47760;SDS011;33524;55.434;38.520;2023-06-10T00:20:46;5.22;;;3.58;;
47760;SDS011;33524;55.434;38.520;2023-06-10T00:25:44;5.20;;;3.15;;
47760;SDS011;33524;55.434;38.520;2023-06-10T00:28:12;5.15;;;3.00;;
47760;SDS011;33524;55.434;38.520;2023-06-10T00:30:41;4.40;;;3.00;;
47760;SDS011;33524;55.434;38.520;2023-06-10T00:33:09;5.60;;;3.03;;
47760;SDS011;33524;55.434;38.520;2023-06-10T00:35:40;5.43;;;2.83;;
47760;SDS011;33524;55.434;38.520;2023-06-10T00:38:13;3.70;;;2.90;;
47760;SDS011;33524;55.434;38.520;2023-06-10T00:40:42;6.75;;;2.95;;
47760;SDS011;33524;55.434;38.520;2023-06-10T00:43:11;5.30;;;2.80;;
47760;SDS011;33524;55.434;38.520;2023-06-10T00:45:39;4.55;;;2.90;;
47760;SDS011;33524;55.434;38.520;2023-06-10T00:48:07;4.00;;;2.60;;
47760;SDS011;33524;55.434;38.520;2023-06-10T00:50:36;3.97;;;2.97;;
47760;SDS011;33524;55.434;38.520;2023-06-10T00:53:06;3.58;;;2.67;;
47760;SDS011;33524;55.434;38.520;2023-06-10T00:55:36;3.62;;;2.70;;
47760;SDS011;33524;55.434;38.520;2023-06-10T00:58:08;4.87;;;2.70;;
47760;SDS011;33524;55.434;38.520;2023-06-10T01:00:37;6.43;;;2.83;;
47760;SDS011;33524;55.434;38.520;2023-06-10T01:03:05;4.75;;;2.53;;
47760;SDS011;33524;55.434;38.520;2023-06-10T01:05:35;3.70;;;2.83;;
47760;SDS011;33524;55.434;38.520;2023-06-10T01:11:01;5.43;;;3.00;;
47760;SDS011;33524;55.434;38.520;2023-06-10T01:13:35;4.93;;;2.87;;
47760;SDS011;33524;55.434;38.520;2023-06-10T01:16:06;4.25;;;2.60;;
47760;SDS011;33524;55.434;38.520;2023-06-10T01:18:37;3.62;;;2.50;;
47760;SDS011;33524;55.434;38.520;2023-06-10T01:21:06;4.80;;;2.45;;
47760;SDS011;33524;55.434;38.520;2023-06-10T01:23:35;4.05;;;2.50;;
47760;SDS011;33524;55.434;38.520;2023-06-10T01:26:08;4.62;;;2.90;;
47760;SDS011;33524;55.434;38.520;2023-06-10T01:31:49;3.72;;;2.62;;
47760;SDS011;33524;55.434;38.520;2023-06-10T01:34:27;3.85;;;2.53;;
47760;SDS011;33524;55.434;38.520;2023-06-10T01:36:58;3.92;;;2.83;;
47760;SDS011;33524;55.434;38.520;2023-06-10T01:39:27;4.87;;;2.90;;
47760;SDS011;33524;55.434;38.520;2023-06-10T01:41:56;3.65;;;2.75;;
47760;SDS011;33524;55.434;38.520;2023-06-10T01:44:25;6.03;;;2.47;;
47760;SDS011;33524;55.434;38.520;2023-06-10T01:46:53;3.62;;;2.62;;
47760;SDS011;33524;55.434;38.520;2023-06-10T01:49:24;4.75;;;2.65;;
47760;SDS011;33524;55.434;38.520;2023-06-10T01:51:54;5.35;;;3.22;;
47760;SDS011;33524;55.434;38.520;2023-06-10T01:54:22;4.20;;;2.80;;
47760;SDS011;33524;55.434;38.520;2023-06-10T01:56:52;5.10;;;3.10;;
47760;SDS011;33524;55.434;38.520;2023-06-10T01:59:21;3.50;;;2.78;;
47760;SDS011;33524;55.434;38.520;2023-06-10T02:01:49;3.95;;;2.50;;
47760;SDS011;33524;55.434;38.520;2023-06-10T02:04:18;6.35;;;3.08;;
47760;SDS011;33524;55.434;38.520;2023-06-10T02:06:46;5.55;;;2.83;;
47760;SDS011;33524;55.434;38.520;2023-06-10T02:09:13;4.12;;;2.97;;
47760;SDS011;33524;55.434;38.520;2023-06-10T02:11:42;5.05;;;3.08;;
47760;SDS011;33524;55.434;38.520;2023-06-10T02:14:14;5.18;;;3.30;;
47760;SDS011;33524;55.434;38.520;2023-06-10T02:16:42;3.92;;;2.60;;
47760;SDS011;33524;55.434;38.520;2023-06-10T02:19:15;3.58;;;2.78;;
47760;SDS011;33524;55.434;38.520;2023-06-10T02:21:46;3.90;;;2.47;;
47760;SDS011;33524;55.434;38.520;2023-06-10T02:24:14;4.65;;;2.83;;
47760;SDS011;33524;55.434;38.520;2023-06-10T02:26:42;6.60;;;2.70;;
47760;SDS011;33524;55.434;38.520;2023-06-10T02:29:10;4.25;;;2.58;;
47760;SDS011;33524;55.434;38.520;2023-06-10T02:31:38;5.30;;;2.65;;
47760;SDS011;33524;55.434;38.520;2023-06-10T02:34:07;5.60;;;2.95;;
47760;SDS011;33524;55.434;38.520;2023-06-10T02:36:36;4.28;;;2.60;;
47760;SDS011;33524;55.434;38.520;2023-06-10T02:39:04;5.00;;;2.90;;
47760;SDS011;33524;55.434;38.520;2023-06-10T02:41:32;5.60;;;2.75;;
47760;SDS011;33524;55.434;38.520;2023-06-10T02:44:01;5.43;;;2.97;;
47760;SDS011;33524;55.434;38.520;2023-06-10T02:46:29;4.37;;;2.55;;
47760;SDS011;33524;55.434;38.520;2023-06-10T02:48:58;4.07;;;2.40;;
47760;SDS011;33524;55.434;38.520;2023-06-10T02:51:26;4.12;;;2.55;;
47760;SDS011;33524;55.434;38.520;2023-06-10T02:53:55;3.78;;;2.20;;
47760;SDS011;33524;55.434;38.520;2023-06-10T02:56:23;5.30;;;2.62;;
47760;SDS011;33524;55.434;38.520;2023-06-10T02:58:52;4.20;;;2.37;;
47760;SDS011;33524;55.434;38.520;2023-06-10T03:01:21;6.28;;;2.35;;
47760;SDS011;33524;55.434;38.520;2023-06-10T03:03:50;5.43;;;2.55;;
47760;SDS011;33524;55.434;38.520;2023-06-10T03:06:22;6.28;;;2.97;;
47760;SDS011;33524;55.434;38.520;2023-06-10T03:08:55;4.57;;;3.42;;
47760;SDS011;33524;55.434;38.520;2023-06-10T03:11:24;3.53;;;2.10;;
47760;SDS011;33524;55.434;38.520;2023-06-10T03:13:53;4.57;;;2.60;;
47760;SDS011;33524;55.434;38.520;2023-06-10T03:16:22;3.95;;;2.40;;
47760;SDS011;33524;55.434;38.520;2023-06-10T03:18:50;6.28;;;2.25;;
47760;SDS011;33524;55.434;38.520;2023-06-10T03:21:19;3.90;;;2.30;;
47760;SDS011;33524;55.434;38.520;2023-06-10T03:23:48;4.55;;;2.75;;
47760;SDS011;33524;55.434;38.520;2023-06-10T03:26:19;4.25;;;2.65;;
47760;SDS011;33524;55.434;38.520;2023-06-10T03:28:49;3.70;;;2.37;;
47760;SDS011;33524;55.434;38.520;2023-06-10T03:31:19;3.10;;;2.30;;
47760;SDS011;33524;55.434;38.520;2023-06-10T03:33:47;5.05;;;2.50;;
47760;SDS011;33524;55.434;38.520;2023-06-10T03:36:15;4.50;;;2.90;;
47760;SDS011;33524;55.434;38.520;2023-06-10T03:38:43;3.40;;;2.22;;
47760;SDS011;33524;55.434;38.520;2023-06-10T03:41:12;3.92;;;2.08;;
47760;SDS011;33524;55.434;38.520;2023-06-10T03:43:40;3.35;;;2.12;;
47760;SDS011;33524;55.434;38.520;2023-06-10T03:46:09;5.12;;;2.17;;
47760;SDS011;33524;55.434;38.520;2023-06-10T03:48:38;4.37;;;2.45;;
47760;SDS011;33524;55.434;38.520;2023-06-10T03:51:07;5.00;;;2.50;;
47760;SDS011;33524;55.434;38.520;2023-06-10T03:53:35;6.97;;;2.10;;
47760;SDS011;33524;55.434;38.520;2023-06-10T03:56:03;2.47;;;1.75;;
47760;SDS011;33524;55.434;38.520;2023-06-10T03:58:35;3.90;;;2.15;;
47760;SDS011;33524;55.434;38.520;2023-06-10T04:01:03;2.47;;;1.80;;
47760;SDS011;33524;55.434;38.520;2023-06-10T04:03:35;3.90;;;1.90;;
47760;SDS011;33524;55.434;38.520;2023-06-10T04:06:03;2.67;;;1.70;;
47760;SDS011;33524;55.434;38.520;2023-06-10T04:08:32;3.50;;;1.67;;
47760;SDS011;33524;55.434;38.520;2023-06-10T04:11:00;3.53;;;1.85;;
47760;SDS011;33524;55.434;38.520;2023-06-10T04:13:29;2.83;;;1.85;;
47760;SDS011;33524;55.434;38.520;2023-06-10T04:15:58;2.00;;;1.20;;
47760;SDS011;33524;55.434;38.520;2023-06-10T04:18:26;2.92;;;1.87;;
47760;SDS011;33524;55.434;38.520;2023-06-10T04:20:55;2.20;;;1.55;;
47760;SDS011;33524;55.434;38.520;2023-06-10T04:23:24;2.03;;;1.50;;
47760;SDS011;33524;55.434;38.520;2023-06-10T04:25:56;2.47;;;1.73;;
47760;SDS011;33524;55.434;38.520;2023-06-10T04:28:25;4.25;;;1.27;;
47760;SDS011;33524;55.434;38.520;2023-06-10T04:30:57;2.03;;;1.37;;
47760;SDS011;33524;55.434;38.520;2023-06-10T04:33:25;2.12;;;1.20;;
47760;SDS011;33524;55.434;38.520;2023-06-10T04:35:53;1.95;;;1.40;;
47760;SDS011;33524;55.434;38.520;2023-06-10T04:38:22;2.75;;;1.23;;
47760;SDS011;33524;55.434;38.520;2023-06-10T04:40:51;2.62;;;1.58;;
47760;SDS011;33524;55.434;38.520;2023-06-10T04:43:20;3.78;;;1.45;;
47760;SDS011;33524;55.434;38.520;2023-06-10T04:45:48;2.65;;;1.55;;
47760;SDS011;33524;55.434;38.520;2023-06-10T04:48:16;3.90;;;1.37;;
47760;SDS011;33524;55.434;38.520;2023-06-10T04:50:44;2.67;;;1.23;;
47760;SDS011;33524;55.434;38.520;2023-06-10T04:53:12;1.52;;;0.85;;
47760;SDS011;33524;55.434;38.520;2023-06-10T04:55:43;3.45;;;1.23;;
47760;SDS011;33524;55.434;38.520;2023-06-10T04:58:12;2.10;;;0.90;;
47760;SDS011;33524;55.434;38.520;2023-06-10T05:00:40;2.78;;;1.30;;
47760;SDS011;33524;55.434;38.520;2023-06-10T05:03:09;2.15;;;1.20;;
47760;SDS011;33524;55.434;38.520;2023-06-10T05:05:37;1.52;;;1.08;;
47760;SDS011;33524;55.434;38.520;2023-06-10T05:08:05;2.28;;;1.33;;
47760;SDS011;33524;55.434;38.520;2023-06-10T05:10:35;2.08;;;1.10;;
47760;SDS011;33524;55.434;38.520;2023-06-10T05:13:03;2.92;;;1.25;;
47760;SDS011;33524;55.434;38.520;2023-06-10T05:15:31;1.90;;;1.12;;
47760;SDS011;33524;55.434;38.520;2023-06-10T05:17:59;1.67;;;0.90;;
47760;SDS011;33524;55.434;38.520;2023-06-10T05:20:30;1.85;;;0.90;;
47760;SDS011;33524;55.434;38.520;2023-06-10T05:23:10;1.60;;;1.05;;
47760;SDS011;33524;55.434;38.520;2023-06-10T05:25:39;3.78;;;1.20;;
47760;SDS011;33524;55.434;38.520;2023-06-10T05:28:19;1.70;;;1.17;;
47760;SDS011;33524;55.434;38.520;2023-06-10T05:30:47;2.28;;;1.40;;
47760;SDS011;33524;55.434;38.520;2023-06-10T05:33:15;1.40;;;1.00;;
47760;SDS011;33524;55.434;38.520;2023-06-10T05:35:43;1.83;;;1.05;;
47760;SDS011;33524;55.434;38.520;2023-06-10T05:38:11;1.73;;;1.10;;
47760;SDS011;33524;55.434;38.520;2023-06-10T05:40:39;1.30;;;1.10;;
47760;SDS011;33524;55.434;38.520;2023-06-10T05:43:07;2.42;;;1.25;;
47760;SDS011;33524;55.434;38.520;2023-06-10T05:45:37;1.77;;;1.12;;
47760;SDS011;33524;55.434;38.520;2023-06-10T05:48:05;2.17;;;1.15;;
47760;SDS011;33524;55.434;38.520;2023-06-10T05:50:33;1.75;;;1.30;;
47760;SDS011;33524;55.434;38.520;2023-06-10T05:53:06;2.05;;;1.33;;
47760;SDS011;33524;55.434;38.520;2023-06-10T05:55:35;2.33;;;1.20;;
47760;SDS011;33524;55.434;38.520;2023-06-10T05:58:03;1.50;;;1.10;;
47760;SDS011;33524;55.434;38.520;2023-06-10T06:00:32;0.65;;;0.62;;
47760;SDS011;33524;55.434;38.520;2023-06-10T06:03:06;1.67;;;1.20;;
47760;SDS011;33524;55.434;38.520;2023-06-10T06:05:38;4.05;;;1.40;;
47760;SDS011;33524;55.434;38.520;2023-06-10T06:08:09;2.83;;;1.40;;
47760;SDS011;33524;55.434;38.520;2023-06-10T06:10:38;2.62;;;1.30;;
47760;SDS011;33524;55.434;38.520;2023-06-10T06:13:06;1.73;;;0.77;;
47760;SDS011;33524;55.434;38.520;2023-06-10T06:15:34;2.22;;;1.42;;
47760;SDS011;33524;55.434;38.520;2023-06-10T06:18:02;1.87;;;1.35;;
47760;SDS011;33524;55.434;38.520;2023-06-10T06:20:31;2.72;;;1.50;;
47760;SDS011;33524;55.434;38.520;2023-06-10T06:22:59;1.62;;;1.10;;
47760;SDS011;33524;55.434;38.520;2023-06-10T06:25:27;2.53;;;1.40;;
47760;SDS011;33524;55.434;38.520;2023-06-10T06:27:55;3.95;;;1.40;;
47760;SDS011;33524;55.434;38.520;2023-06-10T06:30:23;2.97;;;1.67;;
47760;SDS011;33524;55.434;38.520;2023-06-10T06:32:52;3.62;;;1.83;;
47760;SDS011;33524;55.434;38.520;2023-06-10T06:35:21;1.92;;;1.25;;
47760;SDS011;33524;55.434;38.520;2023-06-10T06:37:49;3.92;;;1.73;;
47760;SDS011;33524;55.434;38.520;2023-06-10T06:40:36;3.05;;;1.42;;
47760;SDS011;33524;55.434;38.520;2023-06-10T06:43:04;5.35;;;2.20;;
47760;SDS011;33524;55.434;38.520;2023-06-10T06:45:34;2.37;;;1.33;;
47760;SDS011;33524;55.434;38.520;2023-06-10T06:48:02;3.42;;;1.40;;
47760;SDS011;33524;55.434;38.520;2023-06-10T06:50:31;3.15;;;1.37;;
47760;SDS011;33524;55.434;38.520;2023-06-10T06:53:00;2.37;;;1.20;;
47760;SDS011;33524;55.434;38.520;2023-06-10T06:55:40;2.55;;;1.60;;
47760;SDS011;33524;55.434;38.520;2023-06-10T06:58:14;3.17;;;1.48;;
47760;SDS011;33524;55.434;38.520;2023-06-10T07:00:59;3.10;;;1.45;;
47760;SDS011;33524;55.434;38.520;2023-06-10T07:03:27;2.45;;;1.60;;
47760;SDS011;33524;55.434;38.520;2023-06-10T07:05:55;2.37;;;1.10;;
47760;SDS011;33524;55.434;38.520;2023-06-10T07:08:24;3.45;;;1.45;;
47760;SDS011;33524;55.434;38.520;2023-06-10T07:11:04;2.85;;;1.25;;
47760;SDS011;33524;55.434;38.520;2023-06-10T07:13:32;1.65;;;1.00;;
47760;SDS011;33524;55.434;38.520;2023-06-10T07:16:00;4.03;;;1.65;;
47760;SDS011;33524;55.434;38.520;2023-06-10T07:18:29;1.98;;;1.58;;
47760;SDS011;33524;55.434;38.520;2023-06-10T07:21:08;2.00;;;1.50;;
47760;SDS011;33524;55.434;38.520;2023-06-10T07:23:37;2.75;;;1.55;;
47760;SDS011;33524;55.434;38.520;2023-06-10T07:26:05;5.75;;;1.58;;
47760;SDS011;33524;55.434;38.520;2023-06-10T07:28:33;2.10;;;1.33;;
47760;SDS011;33524;55.434;38.520;2023-06-10T07:31:01;1.65;;;1.15;;
47760;SDS011;33524;55.434;38.520;2023-06-10T07:33:29;1.48;;;1.20;;
47760;SDS011;33524;55.434;38.520;2023-06-10T07:35:57;2.95;;;1.70;;
47760;SDS011;33524;55.434;38.520;2023-06-10T07:38:26;1.42;;;1.30;;
47760;SDS011;33524;55.434;38.520;2023-06-10T07:40:54;4.50;;;1.50;;
47760;SDS011;33524;55.434;38.520;2023-06-10T07:43:22;25.37;;;3.87;;
47760;SDS011;33524;55.434;38.520;2023-06-10T07:45:50;3.45;;;1.52;;
47760;SDS011;33524;55.434;38.520;2023-06-10T07:48:18;1.75;;;1.15;;
47760;SDS011;33524;55.434;38.520;2023-06-10T07:50:46;2.28;;;1.40;;
47760;SDS011;33524;55.434;38.520;2023-06-10T07:53:15;4.40;;;1.27;;
47760;SDS011;33524;55.434;38.520;2023-06-10T07:55:43;5.90;;;1.90;;
47760;SDS011;33524;55.434;38.520;2023-06-10T07:58:11;1.98;;;1.10;;
47760;SDS011;33524;55.434;38.520;2023-06-10T08:00:40;1.90;;;1.08;;
47760;SDS011;33524;55.434;38.520;2023-06-10T08:03:08;2.67;;;1.23;;
47760;SDS011;33524;55.434;38.520;2023-06-10T08:05:37;1.30;;;1.10;;
47760;SDS011;33524;55.434;38.520;2023-06-10T08:08:06;2.08;;;1.00;;
47760;SDS011;33524;55.434;38.520;2023-06-10T08:10:35;3.17;;;1.40;;
47760;SDS011;33524;55.434;38.520;2023-06-10T08:13:03;1.20;;;0.80;;
47760;SDS011;33524;55.434;38.520;2023-06-10T08:15:31;3.72;;;1.15;;
47760;SDS011;33524;55.434;38.520;2023-06-10T08:17:59;1.23;;;1.02;;
47760;SDS011;33524;55.434;38.520;2023-06-10T08:20:27;1.52;;;1.10;;
47760;SDS011;33524;55.434;38.520;2023-06-10T08:22:55;3.67;;;0.98;;
47760;SDS011;33524;55.434;38.520;2023-06-10T08:25:24;1.58;;;1.00;;
47760;SDS011;33524;55.434;38.520;2023-06-10T08:27:52;2.10;;;1.30;;
47760;SDS011;33524;55.434;38.520;2023-06-10T08:30:20;3.42;;;1.25;;
47760;SDS011;33524;55.434;38.520;2023-06-10T08:32:48;2.08;;;1.62;;
47760;SDS011;33524;55.434;38.520;2023-06-10T08:35:34;2.00;;;1.55;;
47760;SDS011;33524;55.434;38.520;2023-06-10T08:38:20;3.60;;;2.75;;
47760;SDS011;33524;55.434;38.520;2023-06-10T08:40:49;1.70;;;0.90;;
47760;SDS011;33524;55.434;38.520;2023-06-10T08:43:25;10.40;;;2.35;;
47760;SDS011;33524;55.434;38.520;2023-06-10T08:45:57;3.05;;;1.20;;
47760;SDS011;33524;55.434;38.520;2023-06-10T08:50:59;3.05;;;1.00;;
47760;SDS011;33524;55.434;38.520;2023-06-10T08:53:29;2.00;;;1.20;;
47760;SDS011;33524;55.434;38.520;2023-06-10T08:55:59;2.87;;;1.00;;
47760;SDS011;33524;55.434;38.520;2023-06-10T08:58:31;3.00;;;1.08;;
47760;SDS011;33524;55.434;38.520;2023-06-10T09:01:09;2.20;;;1.10;;
47760;SDS011;33524;55.434;38.520;2023-06-10T09:03:39;2.10;;;1.15;;
47760;SDS011;33524;55.434;38.520;2023-06-10T09:06:09;5.50;;;1.33;;
47760;SDS011;33524;55.434;38.520;2023-06-10T09:08:38;2.40;;;0.70;;
47760;SDS011;33524;55.434;38.520;2023-06-10T09:11:07;2.87;;;0.80;;
47760;SDS011;33524;55.434;38.520;2023-06-10T09:13:35;6.30;;;1.27;;
47760;SDS011;33524;55.434;38.520;2023-06-10T09:16:04;0.75;;;0.70;;
47760;SDS011;33524;55.434;38.520;2023-06-10T09:18:33;0.82;;;0.65;;
47760;SDS011;33524;55.434;38.520;2023-06-10T09:21:02;1.17;;;0.62;;
47760;SDS011;33524;55.434;38.520;2023-06-10T09:23:30;1.85;;;0.70;;
47760;SDS011;33524;55.434;38.520;2023-06-10T09:25:58;1.77;;;0.90;;
47760;SDS011;33524;55.434;38.520;2023-06-10T09:28:27;0.82;;;0.70;;
47760;SDS011;33524;55.434;38.520;2023-06-10T09:31:02;5.15;;;1.27;;
47760;SDS011;33524;55.434;38.520;2023-06-10T09:33:39;1.08;;;0.57;;
47760;SDS011;33524;55.434;38.520;2023-06-10T09:36:08;2.15;;;1.00;;
47760;SDS011;33524;55.434;38.520;2023-06-10T09:38:36;1.65;;;0.75;;
47760;SDS011;33524;55.434;38.520;2023-06-10T09:41:05;1.50;;;0.88;;
47760;SDS011;33524;55.434;38.520;2023-06-10T09:43:40;1.10;;;0.75;;
47760;SDS011;33524;55.434;38.520;2023-06-10T09:46:18;1.05;;;0.73;;
47760;SDS011;33524;55.434;38.520;2023-06-10T09:48:48;1.75;;;0.62;;
47760;SDS011;33524;55.434;38.520;2023-06-10T09:51:16;1.65;;;0.77;;
47760;SDS011;33524;55.434;38.520;2023-06-10T09:53:47;2.30;;;1.10;;
47760;SDS011;33524;55.434;38.520;2023-06-10T09:56:20;2.33;;;0.55;;
47760;SDS011;33524;55.434;38.520;2023-06-10T09:58:53;4.30;;;1.17;;
47760;SDS011;33524;55.434;38.520;2023-06-10T10:01:22;1.92;;;0.80;;
47760;SDS011;33524;55.434;38.520;2023-06-10T10:03:52;0.88;;;0.65;;
47760;SDS011;33524;55.434;38.520;2023-06-10T10:06:20;0.98;;;0.77;;
47760;SDS011;33524;55.434;38.520;2023-06-10T10:08:49;2.47;;;0.95;;
47760;SDS011;33524;55.434;38.520;2023-06-10T10:11:19;1.95;;;0.95;;
47760;SDS011;33524;55.434;38.520;2023-06-10T10:13:50;4.20;;;1.45;;
47760;SDS011;33524;55.434;38.520;2023-06-10T10:16:24;3.08;;;1.02;;
47760;SDS011;33524;55.434;38.520;2023-06-10T10:19:06;2.53;;;0.82;;
47760;SDS011;33524;55.434;38.520;2023-06-10T10:21:39;0.43;;;0.43;;
47760;SDS011;33524;55.434;38.520;2023-06-10T10:24:36;2.62;;;1.20;;
47760;SDS011;33524;55.434;38.520;2023-06-10T10:27:35;1.17;;;0.90;;
47760;SDS011;33524;55.434;38.520;2023-06-10T10:30:08;2.28;;;0.95;;
47760;SDS011;33524;55.434;38.520;2023-06-10T10:32:58;2.83;;;1.23;;
47760;SDS011;33524;55.434;38.520;2023-06-10T10:35:46;2.70;;;1.00;;
47760;SDS011;33524;55.434;38.520;2023-06-10T10:38:15;3.17;;;1.20;;
47760;SDS011;33524;55.434;38.520;2023-06-10T10:40:44;2.15;;;0.88;;
47760;SDS011;33524;55.434;38.520;2023-06-10T10:43:18;2.80;;;1.27;;
47760;SDS011;33524;55.434;38.520;2023-06-10T10:45:57;1.98;;;1.23;;
47760;SDS011;33524;55.434;38.520;2023-06-10T10:48:36;2.70;;;1.52;;
47760;SDS011;33524;55.434;38.520;2023-06-10T10:51:07;0.93;;;0.82;;
47760;SDS011;33524;55.434;38.520;2023-06-10T10:53:38;3.15;;;1.25;;
47760;SDS011;33524;55.434;38.520;2023-06-10T10:56:14;1.92;;;1.30;;
47760;SDS011;33524;55.434;38.520;2023-06-10T10:59:06;2.90;;;1.20;;
47760;SDS011;33524;55.434;38.520;2023-06-10T11:01:42;2.17;;;1.20;;
47760;SDS011;33524;55.434;38.520;2023-06-10T11:04:14;3.33;;;1.02;;
47760;SDS011;33524;55.434;38.520;2023-06-10T11:06:53;1.83;;;0.80;;
47760;SDS011;33524;55.434;38.520;2023-06-10T11:09:26;1.42;;;0.95;;
47760;SDS011;33524;55.434;38.520;2023-06-10T11:11:57;2.35;;;0.95;;
47760;SDS011;33524;55.434;38.520;2023-06-10T11:14:29;2.25;;;1.30;;
47760;SDS011;33524;55.434;38.520;2023-06-10T11:16:58;3.17;;;1.48;;
47760;SDS011;33524;55.434;38.520;2023-06-10T11:19:38;1.42;;;0.82;;
47760;SDS011;33524;55.434;38.520;2023-06-10T11:22:08;4.35;;;2.87;;
47760;SDS011;33524;55.434;38.520;2023-06-10T11:24:51;3.92;;;1.08;;
47760;SDS011;33524;55.434;38.520;2023-06-10T11:27:20;3.97;;;1.50;;
47760;SDS011;33524;55.434;38.520;2023-06-10T11:32:31;4.35;;;1.55;;
47760;SDS011;33524;55.434;38.520;2023-06-10T11:35:04;1.58;;;1.10;;
47760;SDS011;33524;55.434;38.520;2023-06-10T11:37:35;4.37;;;2.55;;
47760;SDS011;33524;55.434;38.520;2023-06-10T11:40:04;2.85;;;1.25;;
47760;SDS011;33524;55.434;38.520;2023-06-10T11:42:40;2.30;;;1.00;;
47760;SDS011;33524;55.434;38.520;2023-06-10T11:45:09;1.77;;;1.10;;
47760;SDS011;33524;55.434;38.520;2023-06-10T11:47:55;2.62;;;1.42;;
47760;SDS011;33524;55.434;38.520;2023-06-10T11:50:27;2.60;;;1.40;;
47760;SDS011;33524;55.434;38.520;2023-06-10T11:53:00;3.20;;;1.50;;
47760;SDS011;33524;55.434;38.520;2023-06-10T11:55:47;3.80;;;1.17;;
47760;SDS011;33524;55.434;38.520;2023-06-10T11:58:17;3.87;;;1.75;;
47760;SDS011;33524;55.434;38.520;2023-06-10T12:00:48;4.68;;;2.22;;
47760;SDS011;33524;55.434;38.520;2023-06-10T12:03:19;2.75;;;1.60;;
47760;SDS011;33524;55.434;38.520;2023-06-10T12:08:28;2.62;;;1.23;;
47760;SDS011;33524;55.434;38.520;2023-06-10T12:10:59;2.83;;;1.00;;
47760;SDS011;33524;55.434;38.520;2023-06-10T12:13:27;4.47;;;1.67;;
47760;SDS011;33524;55.434;38.520;2023-06-10T12:16:05;3.50;;;1.95;;
47760;SDS011;33524;55.434;38.520;2023-06-10T12:18:35;3.33;;;1.73;;
47760;SDS011;33524;55.434;38.520;2023-06-10T12:21:03;2.15;;;1.10;;
47760;SDS011;33524;55.434;38.520;2023-06-10T12:26:35;1.50;;;1.15;;
47760;SDS011;33524;55.434;38.520;2023-06-10T12:31:58;2.15;;;0.95;;
47760;SDS011;33524;55.434;38.520;2023-06-10T12:34:36;2.92;;;1.60;;
47760;SDS011;33524;55.434;38.520;2023-06-10T12:37:10;4.37;;;1.30;;
47760;SDS011;33524;55.434;38.520;2023-06-10T12:39:42;3.75;;;1.37;;
47760;SDS011;33524;55.434;38.520;2023-06-10T12:42:22;2.35;;;1.30;;
47760;SDS011;33524;55.434;38.520;2023-06-10T12:44:53;3.95;;;1.80;;
47760;SDS011;33524;55.434;38.520;2023-06-10T12:47:29;3.40;;;1.77;;
47760;SDS011;33524;55.434;38.520;2023-06-10T12:49:59;4.45;;;2.20;;
47760;SDS011;33524;55.434;38.520;2023-06-10T12:52:32;2.08;;;1.23;;
47760;SDS011;33524;55.434;38.520;2023-06-10T12:55:00;2.42;;;1.27;;
47760;SDS011;33524;55.434;38.520;2023-06-10T12:57:30;1.70;;;0.70;;
47760;SDS011;33524;55.434;38.520;2023-06-10T12:59:59;1.75;;;1.12;;
47760;SDS011;33524;55.434;38.520;2023-06-10T13:02:33;2.42;;;1.30;;
47760;SDS011;33524;55.434;38.520;2023-06-10T13:05:02;2.90;;;1.30;;
47760;SDS011;33524;55.434;38.520;2023-06-10T13:07:31;3.55;;;1.20;;
47760;SDS011;33524;55.434;38.520;2023-06-10T13:09:59;2.78;;;1.40;;
47760;SDS011;33524;55.434;38.520;2023-06-10T13:12:29;3.87;;;1.35;;
47760;SDS011;33524;55.434;38.520;2023-06-10T13:15:14;2.03;;;1.20;;
47760;SDS011;33524;55.434;38.520;2023-06-10T13:17:43;0.93;;;0.70;;
47760;SDS011;33524;55.434;38.520;2023-06-10T13:20:14;3.15;;;1.45;;
47760;SDS011;33524;55.434;38.520;2023-06-10T13:22:45;5.03;;;1.33;;
47760;SDS011;33524;55.434;38.520;2023-06-10T13:25:15;2.85;;;1.52;;
47760;SDS011;33524;55.434;38.520;2023-06-10T13:27:43;3.20;;;1.58;;
47760;SDS011;33524;55.434;38.520;2023-06-10T13:30:12;4.90;;;1.80;;
47760;SDS011;33524;55.434;38.520;2023-06-10T13:32:40;2.15;;;1.20;;
47760;SDS011;33524;55.434;38.520;2023-06-10T13:35:11;4.03;;;1.50;;
47760;SDS011;33524;55.434;38.520;2023-06-10T13:37:40;1.33;;;0.98;;
47760;SDS011;33524;55.434;38.520;2023-06-10T13:40:08;2.95;;;1.27;;
47760;SDS011;33524;55.434;38.520;2023-06-10T13:42:37;2.05;;;1.20;;
47760;SDS011;33524;55.434;38.520;2023-06-10T13:45:06;3.62;;;1.73;;
47760;SDS011;33524;55.434;38.520;2023-06-10T13:47:38;4.87;;;1.50;;
47760;SDS011;33524;55.434;38.520;2023-06-10T13:50:06;3.53;;;1.30;;
47760;SDS011;33524;55.434;38.520;2023-06-10T13:52:35;3.12;;;1.33;;
47760;SDS011;33524;55.434;38.520;2023-06-10T13:55:03;5.25;;;1.67;;
47760;SDS011;33524;55.434;38.520;2023-06-10T13:57:32;2.72;;;1.27;;
47760;SDS011;33524;55.434;38.520;2023-06-10T14:00:00;1.42;;;1.20;;
47760;SDS011;33524;55.434;38.520;2023-06-10T14:02:32;3.20;;;1.43;;
47760;SDS011;33524;55.434;38.520;2023-06-10T14:05:01;3.92;;;1.48;;
47760;SDS011;33524;55.434;38.520;2023-06-10T14:07:30;2.65;;;1.10;;
47760;SDS011;33524;55.434;38.520;2023-06-10T14:09:58;1.33;;;0.90;;
47760;SDS011;33524;55.434;38.520;2023-06-10T14:12:26;2.05;;;1.30;;
47760;SDS011;33524;55.434;38.520;2023-06-10T14:14:54;3.22;;;1.33;;
47760;SDS011;33524;55.434;38.520;2023-06-10T14:17:22;2.47;;;1.10;;
47760;SDS011;33524;55.434;38.520;2023-06-10T14:19:51;3.92;;;1.20;;
47760;SDS011;33524;55.434;38.520;2023-06-10T14:22:21;1.40;;;0.90;;
47760;SDS011;33524;55.434;38.520;2023-06-10T14:24:49;3.78;;;1.25;;
47760;SDS011;33524;55.434;38.520;2023-06-10T14:27:21;1.90;;;1.00;;
47760;SDS011;33524;55.434;38.520;2023-06-10T14:29:49;1.95;;;1.10;;
47760;SDS011;33524;55.434;38.520;2023-06-10T14:32:17;3.00;;;1.65;;
47760;SDS011;33524;55.434;38.520;2023-06-10T14:34:46;2.45;;;1.65;;
47760;SDS011;33524;55.434;38.520;2023-06-10T14:37:14;2.37;;;1.60;;
47760;SDS011;33524;55.434;38.520;2023-06-10T14:39:46;3.35;;;1.50;;
47760;SDS011;33524;55.434;38.520;2023-06-10T14:42:14;3.28;;;1.15;;
47760;SDS011;33524;55.434;38.520;2023-06-10T14:44:42;2.37;;;1.05;;
47760;SDS011;33524;55.434;38.520;2023-06-10T14:47:30;2.00;;;1.08;;
47760;SDS011;33524;55.434;38.520;2023-06-10T14:49:58;3.12;;;1.02;;
47760;SDS011;33524;55.434;38.520;2023-06-10T14:52:31;4.10;;;0.98;;
47760;SDS011;33524;55.434;38.520;2023-06-10T14:54:59;2.95;;;0.80;;
47760;SDS011;33524;55.434;38.520;2023-06-10T14:57:29;2.40;;;0.95;;
47760;SDS011;33524;55.434;38.520;2023-06-10T14:59:59;2.37;;;1.15;;
47760;SDS011;33524;55.434;38.520;2023-06-10T15:02:31;0.95;;;0.77;;
47760;SDS011;33524;55.434;38.520;2023-06-10T15:05:00;1.50;;;0.95;;
47760;SDS011;33524;55.434;38.520;2023-06-10T15:07:29;2.33;;;1.20;;
47760;SDS011;33524;55.434;38.520;2023-06-10T15:09:57;2.08;;;1.40;;
47760;SDS011;33524;55.434;38.520;2023-06-10T15:12:26;1.95;;;1.17;;
47760;SDS011;33524;55.434;38.520;2023-06-10T15:14:55;3.28;;;1.10;;